sensor_id;sensor_type;location;lat;lon;timestamp;temperature;humidity
981;DHT22;479;53.514;9.994;2023-04-25T00:01:34;8.80;99.90
981;DHT22;479;53.514;9.994;2023-04-25T00:04:01;8.70;99.90
981;DHT22;479;53.514;9.994;2023-04-25T00:06:29;8.70;99.90
981;DHT22;479;53.514;9.994;2023-04-25T00:08:58;8.70;99.90
981;DHT22;479;53.514;9.994;2023-04-25T00:11:25;8.80;99.90
981;DHT22;479;53.514;9.994;2023-04-25T00:13:52;8.90;99.90
981;DHT22;479;53.514;9.994;2023-04-25T00:16:19;9.00;99.90
981;DHT22;479;53.514;9.994;2023-04-25T00:18:46;8.80;99.90
981;DHT22;479;53.514;9.994;2023-04-25T00:21:17;8.70;99.90
981;DHT22;479;53.514;9.994;2023-04-25T00:23:45;8.70;99.90
981;DHT22;479;53.514;9.994;2023-04-25T00:26:13;8.50;99.90
981;DHT22;479;53.514;9.994;2023-04-25T00:28:40;8.40;99.90
981;DHT22;479;53.514;9.994;2023-04-25T00:31:07;8.40;99.90
981;DHT22;479;53.514;9.994;2023-04-25T00:33:34;8.50;99.90
981;DHT22;479;53.514;9.994;2023-04-25T00:36:01;8.50;99.90
981;DHT22;479;53.514;9.994;2023-04-25T00:38:28;8.40;99.90
981;DHT22;479;53.514;9.994;2023-04-25T00:40:55;8.50;99.90
981;DHT22;479;53.514;9.994;2023-04-25T00:43:25;8.60;99.90
981;DHT22;479;53.514;9.994;2023-04-25T00:45:53;8.50;99.90
981;DHT22;479;53.514;9.994;2023-04-25T00:48:22;8.40;99.90
981;DHT22;479;53.514;9.994;2023-04-25T00:50:52;8.30;99.90
981;DHT22;479;53.514;9.994;2023-04-25T00:53:19;8.30;99.90
981;DHT22;479;53.514;9.994;2023-04-25T00:55:47;8.20;99.90
981;DHT22;479;53.514;9.994;2023-04-25T00:58:16;8.20;99.90
981;DHT22;479;53.514;9.994;2023-04-25T01:00:45;8.30;99.90
981;DHT22;479;53.514;9.994;2023-04-25T01:03:12;8.20;99.90
981;DHT22;479;53.514;9.994;2023-04-25T01:05:40;8.20;99.90
981;DHT22;479;53.514;9.994;2023-04-25T01:08:08;8.30;99.90
981;DHT22;479;53.514;9.994;2023-04-25T01:10:35;8.30;99.90
981;DHT22;479;53.514;9.994;2023-04-25T01:13:02;8.40;99.90
981;DHT22;479;53.514;9.994;2023-04-25T01:15:29;8.50;99.90
981;DHT22;479;53.514;9.994;2023-04-25T01:17:58;8.40;99.90
981;DHT22;479;53.514;9.994;2023-04-25T01:20:26;8.30;99.90
981;DHT22;479;53.514;9.994;2023-04-25T01:22:57;8.30;99.90
981;DHT22;479;53.514;9.994;2023-04-25T01:25:24;8.30;99.90
981;DHT22;479;53.514;9.994;2023-04-25T01:27:51;8.20;99.90
981;DHT22;479;53.514;9.994;2023-04-25T01:30:18;8.20;99.90
981;DHT22;479;53.514;9.994;2023-04-25T01:32:47;8.10;99.90
981;DHT22;479;53.514;9.994;2023-04-25T01:35:14;8.20;99.90
981;DHT22;479;53.514;9.994;2023-04-25T01:37:42;8.10;99.90
981;DHT22;479;53.514;9.994;2023-04-25T01:40:13;8.10;99.90
981;DHT22;479;53.514;9.994;2023-04-25T01:42:42;8.00;99.90
981;DHT22;479;53.514;9.994;2023-04-25T01:45:10;8.00;99.90
981;DHT22;479;53.514;9.994;2023-04-25T01:47:38;8.00;99.90
981;DHT22;479;53.514;9.994;2023-04-25T01:50:08;8.00;99.90
981;DHT22;479;53.514;9.994;2023-04-25T01:52:36;8.00;99.90
981;DHT22;479;53.514;9.994;2023-04-25T01:55:05;7.90;99.90
981;DHT22;479;53.514;9.994;2023-04-25T01:57:36;8.00;99.90
981;DHT22;479;53.514;9.994;2023-04-25T02:00:05;8.00;99.90
981;DHT22;479;53.514;9.994;2023-04-25T02:02:40;8.10;99.90
981;DHT22;479;53.514;9.994;2023-04-25T02:05:19;8.30;99.90
981;DHT22;479;53.514;9.994;2023-04-25T02:07:47;8.30;99.90
981;DHT22;479;53.514;9.994;2023-04-25T02:10:14;8.30;99.90
981;DHT22;479;53.514;9.994;2023-04-25T02:12:55;8.20;99.90
981;DHT22;479;53.514;9.994;2023-04-25T02:15:34;8.10;99.90
981;DHT22;479;53.514;9.994;2023-04-25T02:18:13;7.90;99.90
981;DHT22;479;53.514;9.994;2023-04-25T02:20:42;7.90;99.90
981;DHT22;479;53.514;9.994;2023-04-25T02:23:09;8.00;99.90
981;DHT22;479;53.514;9.994;2023-04-25T02:25:36;7.90;99.90
981;DHT22;479;53.514;9.994;2023-04-25T02:28:04;8.00;99.90
981;DHT22;479;53.514;9.994;2023-04-25T02:30:31;8.20;99.90
981;DHT22;479;53.514;9.994;2023-04-25T02:32:58;8.10;99.90
981;DHT22;479;53.514;9.994;2023-04-25T02:35:25;8.00;99.90
981;DHT22;479;53.514;9.994;2023-04-25T02:37:53;7.90;99.90
981;DHT22;479;53.514;9.994;2023-04-25T02:40:20;7.80;99.90
981;DHT22;479;53.514;9.994;2023-04-25T02:42:47;7.90;99.90
981;DHT22;479;53.514;9.994;2023-04-25T02:45:15;7.90;99.90
981;DHT22;479;53.514;9.994;2023-04-25T02:47:42;7.90;99.90
981;DHT22;479;53.514;9.994;2023-04-25T02:50:10;7.90;99.90
981;DHT22;479;53.514;9.994;2023-04-25T02:52:39;8.00;99.90
981;DHT22;479;53.514;9.994;2023-04-25T02:55:16;8.00;99.90
981;DHT22;479;53.514;9.994;2023-04-25T02:57:43;7.80;99.90
981;DHT22;479;53.514;9.994;2023-04-25T03:00:15;7.90;99.90
981;DHT22;479;53.514;9.994;2023-04-25T03:02:42;7.90;99.90
981;DHT22;479;53.514;9.994;2023-04-25T03:05:09;7.70;99.90
981;DHT22;479;53.514;9.994;2023-04-25T03:07:37;7.60;99.90
981;DHT22;479;53.514;9.994;2023-04-25T03:10:06;7.50;99.90
981;DHT22;479;53.514;9.994;2023-04-25T03:12:34;7.50;99.90
981;DHT22;479;53.514;9.994;2023-04-25T03:15:03;7.50;99.90
981;DHT22;479;53.514;9.994;2023-04-25T03:17:32;7.40;99.90
981;DHT22;479;53.514;9.994;2023-04-25T03:19:59;7.40;99.90
981;DHT22;479;53.514;9.994;2023-04-25T03:22:26;7.40;99.90
981;DHT22;479;53.514;9.994;2023-04-25T03:24:53;7.40;99.90
981;DHT22;479;53.514;9.994;2023-04-25T03:27:20;7.30;99.90
981;DHT22;479;53.514;9.994;2023-04-25T03:29:47;7.20;99.90
981;DHT22;479;53.514;9.994;2023-04-25T03:32:14;7.30;99.90
981;DHT22;479;53.514;9.994;2023-04-25T03:34:42;7.30;99.90
981;DHT22;479;53.514;9.994;2023-04-25T03:37:09;7.40;99.90
981;DHT22;479;53.514;9.994;2023-04-25T03:39:37;7.40;99.90
981;DHT22;479;53.514;9.994;2023-04-25T03:42:06;7.40;99.90
981;DHT22;479;53.514;9.994;2023-04-25T03:44:32;7.30;99.90
981;DHT22;479;53.514;9.994;2023-04-25T03:47:00;7.30;99.90
981;DHT22;479;53.514;9.994;2023-04-25T03:49:27;7.20;99.90
981;DHT22;479;53.514;9.994;2023-04-25T03:51:59;7.20;99.90
981;DHT22;479;53.514;9.994;2023-04-25T03:54:28;7.30;99.90
981;DHT22;479;53.514;9.994;2023-04-25T03:57:04;7.30;99.90
981;DHT22;479;53.514;9.994;2023-04-25T03:59:34;7.40;99.90
981;DHT22;479;53.514;9.994;2023-04-25T04:02:02;7.40;99.90
981;DHT22;479;53.514;9.994;2023-04-25T04:04:29;7.40;99.90
981;DHT22;479;53.514;9.994;2023-04-25T04:06:58;7.30;99.90
981;DHT22;479;53.514;9.994;2023-04-25T04:09:29;7.30;99.90
981;DHT22;479;53.514;9.994;2023-04-25T04:11:58;7.20;99.90
981;DHT22;479;53.514;9.994;2023-04-25T04:14:25;7.30;99.90
981;DHT22;479;53.514;9.994;2023-04-25T04:16:52;7.30;99.90
981;DHT22;479;53.514;9.994;2023-04-25T04:19:19;7.20;99.90
981;DHT22;479;53.514;9.994;2023-04-25T04:21:53;7.10;99.90
981;DHT22;479;53.514;9.994;2023-04-25T04:24:22;7.10;99.90
981;DHT22;479;53.514;9.994;2023-04-25T04:26:55;7.10;99.90
981;DHT22;479;53.514;9.994;2023-04-25T04:29:33;7.10;99.90
981;DHT22;479;53.514;9.994;2023-04-25T04:32:07;7.10;99.90
981;DHT22;479;53.514;9.994;2023-04-25T04:34:35;7.10;99.90
981;DHT22;479;53.514;9.994;2023-04-25T04:37:03;7.20;99.90
981;DHT22;479;53.514;9.994;2023-04-25T04:39:32;7.20;99.90
981;DHT22;479;53.514;9.994;2023-04-25T04:42:22;7.30;99.90
981;DHT22;479;53.514;9.994;2023-04-25T04:45:00;7.20;99.90
981;DHT22;479;53.514;9.994;2023-04-25T04:47:44;7.20;99.90
981;DHT22;479;53.514;9.994;2023-04-25T04:50:34;7.20;99.90
981;DHT22;479;53.514;9.994;2023-04-25T04:53:17;7.20;99.90
981;DHT22;479;53.514;9.994;2023-04-25T04:56:14;7.30;99.90
981;DHT22;479;53.514;9.994;2023-04-25T04:58:52;7.30;99.90
981;DHT22;479;53.514;9.994;2023-04-25T05:01:33;7.30;99.90
981;DHT22;479;53.514;9.994;2023-04-25T05:04:22;7.40;99.90
981;DHT22;479;53.514;9.994;2023-04-25T05:07:08;7.50;99.90
981;DHT22;479;53.514;9.994;2023-04-25T05:09:47;7.40;99.90
981;DHT22;479;53.514;9.994;2023-04-25T05:12:34;7.40;99.90
981;DHT22;479;53.514;9.994;2023-04-25T05:15:07;7.40;99.90
981;DHT22;479;53.514;9.994;2023-04-25T05:18:05;7.40;99.90
981;DHT22;479;53.514;9.994;2023-04-25T05:20:46;7.60;99.90
981;DHT22;479;53.514;9.994;2023-04-25T05:23:42;7.50;99.90
981;DHT22;479;53.514;9.994;2023-04-25T05:26:28;7.40;99.90
981;DHT22;479;53.514;9.994;2023-04-25T05:29:24;7.30;99.90
981;DHT22;479;53.514;9.994;2023-04-25T05:32:06;7.20;99.90
981;DHT22;479;53.514;9.994;2023-04-25T05:34:34;7.10;99.90
981;DHT22;479;53.514;9.994;2023-04-25T05:37:05;7.10;99.90
981;DHT22;479;53.514;9.994;2023-04-25T05:39:36;7.20;99.90
981;DHT22;479;53.514;9.994;2023-04-25T05:42:26;7.40;99.90
981;DHT22;479;53.514;9.994;2023-04-25T05:45:27;7.50;99.90
981;DHT22;479;53.514;9.994;2023-04-25T05:48:17;7.80;99.90
981;DHT22;479;53.514;9.994;2023-04-25T05:51:00;7.70;99.90
981;DHT22;479;53.514;9.994;2023-04-25T05:53:41;7.70;99.90
981;DHT22;479;53.514;9.994;2023-04-25T05:56:08;7.70;99.90
981;DHT22;479;53.514;9.994;2023-04-25T05:58:35;7.70;99.90
981;DHT22;479;53.514;9.994;2023-04-25T06:01:04;7.70;99.90
981;DHT22;479;53.514;9.994;2023-04-25T06:03:31;7.70;99.90
981;DHT22;479;53.514;9.994;2023-04-25T06:05:58;7.90;99.90
981;DHT22;479;53.514;9.994;2023-04-25T06:08:25;7.90;99.90
981;DHT22;479;53.514;9.994;2023-04-25T06:10:52;8.00;99.90
981;DHT22;479;53.514;9.994;2023-04-25T06:13:19;8.10;99.90
981;DHT22;479;53.514;9.994;2023-04-25T06:15:46;8.30;99.90
981;DHT22;479;53.514;9.994;2023-04-25T06:18:15;8.30;99.90
981;DHT22;479;53.514;9.994;2023-04-25T06:20:42;8.40;99.90
981;DHT22;479;53.514;9.994;2023-04-25T06:23:09;8.60;99.90
981;DHT22;479;53.514;9.994;2023-04-25T06:26:05;8.40;99.90
981;DHT22;479;53.514;9.994;2023-04-25T06:28:36;8.30;99.90
981;DHT22;479;53.514;9.994;2023-04-25T06:31:04;8.20;99.90
981;DHT22;479;53.514;9.994;2023-04-25T06:33:32;8.10;99.90
981;DHT22;479;53.514;9.994;2023-04-25T06:36:00;8.20;99.90
981;DHT22;479;53.514;9.994;2023-04-25T06:38:27;8.20;99.90
981;DHT22;479;53.514;9.994;2023-04-25T06:40:56;8.20;99.90
981;DHT22;479;53.514;9.994;2023-04-25T06:43:24;8.10;99.90
981;DHT22;479;53.514;9.994;2023-04-25T06:46:05;8.10;99.90
981;DHT22;479;53.514;9.994;2023-04-25T06:48:41;8.30;99.90
981;DHT22;479;53.514;9.994;2023-04-25T06:51:08;8.60;99.90
981;DHT22;479;53.514;9.994;2023-04-25T06:53:36;8.70;99.90
981;DHT22;479;53.514;9.994;2023-04-25T06:56:06;8.80;99.90
981;DHT22;479;53.514;9.994;2023-04-25T06:58:59;8.80;99.90
981;DHT22;479;53.514;9.994;2023-04-25T07:01:32;9.00;99.90
981;DHT22;479;53.514;9.994;2023-04-25T07:04:04;9.10;99.90
981;DHT22;479;53.514;9.994;2023-04-25T07:06:33;9.50;99.90
981;DHT22;479;53.514;9.994;2023-04-25T07:09:00;9.30;99.90
981;DHT22;479;53.514;9.994;2023-04-25T07:11:28;9.30;99.90
981;DHT22;479;53.514;9.994;2023-04-25T07:13:56;9.20;99.90
981;DHT22;479;53.514;9.994;2023-04-25T07:16:22;8.90;99.90
981;DHT22;479;53.514;9.994;2023-04-25T07:18:50;8.90;99.90
981;DHT22;479;53.514;9.994;2023-04-25T07:21:19;8.90;99.90
981;DHT22;479;53.514;9.994;2023-04-25T07:23:49;9.20;99.90
981;DHT22;479;53.514;9.994;2023-04-25T07:26:21;9.60;99.90
981;DHT22;479;53.514;9.994;2023-04-25T07:29:23;9.80;99.90
981;DHT22;479;53.514;9.994;2023-04-25T07:31:50;9.80;99.90
981;DHT22;479;53.514;9.994;2023-04-25T07:34:19;9.80;99.90
981;DHT22;479;53.514;9.994;2023-04-25T07:36:48;9.50;99.90
981;DHT22;479;53.514;9.994;2023-04-25T07:39:15;9.20;99.90
981;DHT22;479;53.514;9.994;2023-04-25T07:41:43;9.00;99.90
981;DHT22;479;53.514;9.994;2023-04-25T07:44:15;9.10;99.90
981;DHT22;479;53.514;9.994;2023-04-25T07:46:43;9.00;99.90
981;DHT22;479;53.514;9.994;2023-04-25T07:49:10;9.20;99.90
981;DHT22;479;53.514;9.994;2023-04-25T07:51:39;9.40;99.90
981;DHT22;479;53.514;9.994;2023-04-25T07:54:13;9.80;99.90
981;DHT22;479;53.514;9.994;2023-04-25T07:56:45;10.00;99.90
981;DHT22;479;53.514;9.994;2023-04-25T07:59:12;10.20;99.90
981;DHT22;479;53.514;9.994;2023-04-25T08:01:40;10.40;99.90
981;DHT22;479;53.514;9.994;2023-04-25T08:04:09;10.90;99.90
981;DHT22;479;53.514;9.994;2023-04-25T08:06:51;11.00;99.90
981;DHT22;479;53.514;9.994;2023-04-25T08:09:24;10.80;99.90
981;DHT22;479;53.514;9.994;2023-04-25T08:11:52;10.60;99.90
981;DHT22;479;53.514;9.994;2023-04-25T08:14:25;11.00;99.90
981;DHT22;479;53.514;9.994;2023-04-25T08:16:52;12.20;99.90
981;DHT22;479;53.514;9.994;2023-04-25T08:19:20;12.50;94.10
981;DHT22;479;53.514;9.994;2023-04-25T08:21:47;12.90;93.20
981;DHT22;479;53.514;9.994;2023-04-25T08:24:19;12.60;85.60
981;DHT22;479;53.514;9.994;2023-04-25T08:26:47;12.20;85.30
981;DHT22;479;53.514;9.994;2023-04-25T08:29:16;12.20;86.40
981;DHT22;479;53.514;9.994;2023-04-25T08:31:44;12.10;89.00
981;DHT22;479;53.514;9.994;2023-04-25T08:34:12;11.90;89.80
981;DHT22;479;53.514;9.994;2023-04-25T08:36:44;11.70;88.00
981;DHT22;479;53.514;9.994;2023-04-25T08:39:22;11.20;91.00
981;DHT22;479;53.514;9.994;2023-04-25T08:42:12;12.30;89.70
981;DHT22;479;53.514;9.994;2023-04-25T08:44:39;12.90;81.50
981;DHT22;479;53.514;9.994;2023-04-25T08:47:06;12.30;79.90
981;DHT22;479;53.514;9.994;2023-04-25T08:49:45;12.20;81.40
981;DHT22;479;53.514;9.994;2023-04-25T08:52:13;12.00;81.20
981;DHT22;479;53.514;9.994;2023-04-25T08:54:42;11.40;84.60
981;DHT22;479;53.514;9.994;2023-04-25T08:57:12;11.40;87.00
981;DHT22;479;53.514;9.994;2023-04-25T08:59:41;10.90;86.00
981;DHT22;479;53.514;9.994;2023-04-25T09:02:11;10.20;93.10
981;DHT22;479;53.514;9.994;2023-04-25T09:04:40;9.20;99.90
981;DHT22;479;53.514;9.994;2023-04-25T09:07:08;8.60;99.90
981;DHT22;479;53.514;9.994;2023-04-25T09:09:35;8.50;99.90
981;DHT22;479;53.514;9.994;2023-04-25T09:12:02;8.80;99.90
981;DHT22;479;53.514;9.994;2023-04-25T09:14:31;8.90;99.90
981;DHT22;479;53.514;9.994;2023-04-25T09:17:05;8.80;99.90
981;DHT22;479;53.514;9.994;2023-04-25T09:19:38;9.10;99.90
981;DHT22;479;53.514;9.994;2023-04-25T09:22:12;9.00;99.90
981;DHT22;479;53.514;9.994;2023-04-25T09:24:40;9.10;99.90
981;DHT22;479;53.514;9.994;2023-04-25T09:27:11;8.80;99.90
981;DHT22;479;53.514;9.994;2023-04-25T09:29:41;8.90;99.90
981;DHT22;479;53.514;9.994;2023-04-25T09:32:16;9.20;99.90
981;DHT22;479;53.514;9.994;2023-04-25T09:34:44;9.60;99.90
981;DHT22;479;53.514;9.994;2023-04-25T09:37:17;10.10;99.90
981;DHT22;479;53.514;9.994;2023-04-25T09:40:06;10.50;99.90
981;DHT22;479;53.514;9.994;2023-04-25T09:42:42;11.10;99.90
981;DHT22;479;53.514;9.994;2023-04-25T09:45:12;11.50;99.60
981;DHT22;479;53.514;9.994;2023-04-25T09:47:42;12.30;96.70
981;DHT22;479;53.514;9.994;2023-04-25T09:50:14;11.30;99.90
981;DHT22;479;53.514;9.994;2023-04-25T09:52:44;10.40;99.90
981;DHT22;479;53.514;9.994;2023-04-25T09:55:22;9.50;99.90
981;DHT22;479;53.514;9.994;2023-04-25T09:57:51;9.60;99.90
981;DHT22;479;53.514;9.994;2023-04-25T10:00:22;9.40;99.90
981;DHT22;479;53.514;9.994;2023-04-25T10:02:50;9.60;99.90
981;DHT22;479;53.514;9.994;2023-04-25T10:05:43;10.00;99.90
981;DHT22;479;53.514;9.994;2023-04-25T10:08:12;10.40;99.90
981;DHT22;479;53.514;9.994;2023-04-25T10:10:40;10.60;99.90
981;DHT22;479;53.514;9.994;2023-04-25T10:13:08;10.70;99.90
981;DHT22;479;53.514;9.994;2023-04-25T10:15:36;11.00;99.90
981;DHT22;479;53.514;9.994;2023-04-25T10:18:03;11.70;99.90
981;DHT22;479;53.514;9.994;2023-04-25T10:20:32;12.60;99.50
981;DHT22;479;53.514;9.994;2023-04-25T10:23:06;13.30;93.80
981;DHT22;479;53.514;9.994;2023-04-25T10:25:35;13.80;90.70
981;DHT22;479;53.514;9.994;2023-04-25T10:28:04;13.00;88.30
981;DHT22;479;53.514;9.994;2023-04-25T10:30:31;11.90;88.80
981;DHT22;479;53.514;9.994;2023-04-25T10:33:00;12.30;89.50
981;DHT22;479;53.514;9.994;2023-04-25T10:35:28;12.80;80.30
981;DHT22;479;53.514;9.994;2023-04-25T10:38:03;12.70;82.20
981;DHT22;479;53.514;9.994;2023-04-25T10:40:31;12.70;80.90
981;DHT22;479;53.514;9.994;2023-04-25T10:45:59;12.10;83.00
981;DHT22;479;53.514;9.994;2023-04-25T10:48:28;11.70;83.90
981;DHT22;479;53.514;9.994;2023-04-25T10:51:07;11.80;86.50
981;DHT22;479;53.514;9.994;2023-04-25T10:53:35;11.90;85.40
981;DHT22;479;53.514;9.994;2023-04-25T10:56:09;12.50;83.30
981;DHT22;479;53.514;9.994;2023-04-25T10:58:42;12.80;80.80
981;DHT22;479;53.514;9.994;2023-04-25T11:01:09;12.80;73.60
981;DHT22;479;53.514;9.994;2023-04-25T11:03:40;12.40;76.60
981;DHT22;479;53.514;9.994;2023-04-25T11:06:22;12.20;77.70
981;DHT22;479;53.514;9.994;2023-04-25T11:08:51;12.00;80.10
981;DHT22;479;53.514;9.994;2023-04-25T11:11:18;11.80;83.50
981;DHT22;479;53.514;9.994;2023-04-25T11:13:48;11.80;83.40
981;DHT22;479;53.514;9.994;2023-04-25T11:16:15;11.80;83.20
981;DHT22;479;53.514;9.994;2023-04-25T11:18:44;12.00;82.70
981;DHT22;479;53.514;9.994;2023-04-25T11:21:11;12.20;81.50
981;DHT22;479;53.514;9.994;2023-04-25T11:23:38;12.30;79.10
981;DHT22;479;53.514;9.994;2023-04-25T11:26:05;12.70;75.60
981;DHT22;479;53.514;9.994;2023-04-25T11:28:32;12.50;74.30
981;DHT22;479;53.514;9.994;2023-04-25T11:30:59;12.40;76.10
981;DHT22;479;53.514;9.994;2023-04-25T11:33:26;12.50;78.60
981;DHT22;479;53.514;9.994;2023-04-25T11:35:55;12.90;77.60
981;DHT22;479;53.514;9.994;2023-04-25T11:38:22;12.50;75.60
981;DHT22;479;53.514;9.994;2023-04-25T11:40:51;12.10;74.70
981;DHT22;479;53.514;9.994;2023-04-25T11:43:20;11.20;78.80
981;DHT22;479;53.514;9.994;2023-04-25T11:45:48;9.90;98.10
981;DHT22;479;53.514;9.994;2023-04-25T11:48:15;8.70;99.90
981;DHT22;479;53.514;9.994;2023-04-25T11:50:41;8.70;99.90
981;DHT22;479;53.514;9.994;2023-04-25T11:53:10;9.10;99.90
981;DHT22;479;53.514;9.994;2023-04-25T11:55:37;9.30;99.90
981;DHT22;479;53.514;9.994;2023-04-25T11:58:05;9.40;99.90
981;DHT22;479;53.514;9.994;2023-04-25T12:00:34;9.40;99.90
981;DHT22;479;53.514;9.994;2023-04-25T12:03:01;9.70;99.90
981;DHT22;479;53.514;9.994;2023-04-25T12:05:30;10.10;99.90
981;DHT22;479;53.514;9.994;2023-04-25T12:08:10;10.50;99.90
981;DHT22;479;53.514;9.994;2023-04-25T12:10:39;10.90;99.90
981;DHT22;479;53.514;9.994;2023-04-25T12:13:22;10.80;99.90
981;DHT22;479;53.514;9.994;2023-04-25T12:15:50;10.80;99.90
981;DHT22;479;53.514;9.994;2023-04-25T12:18:19;11.10;99.90
981;DHT22;479;53.514;9.994;2023-04-25T12:20:46;11.40;99.70
981;DHT22;479;53.514;9.994;2023-04-25T12:23:14;11.40;94.20
981;DHT22;479;53.514;9.994;2023-04-25T12:25:43;11.70;90.10
981;DHT22;479;53.514;9.994;2023-04-25T12:28:11;11.70;85.80
981;DHT22;479;53.514;9.994;2023-04-25T12:30:55;12.00;80.60
981;DHT22;479;53.514;9.994;2023-04-25T12:33:23;11.90;75.00
981;DHT22;479;53.514;9.994;2023-04-25T12:35:50;11.40;73.80
981;DHT22;479;53.514;9.994;2023-04-25T12:38:23;11.20;77.00
981;DHT22;479;53.514;9.994;2023-04-25T12:40:50;11.10;76.90
981;DHT22;479;53.514;9.994;2023-04-25T12:43:17;11.00;77.10
981;DHT22;479;53.514;9.994;2023-04-25T12:45:44;10.80;81.10
981;DHT22;479;53.514;9.994;2023-04-25T12:48:11;11.00;80.00
981;DHT22;479;53.514;9.994;2023-04-25T12:50:38;10.80;80.60
981;DHT22;479;53.514;9.994;2023-04-25T12:53:05;10.90;83.30
981;DHT22;479;53.514;9.994;2023-04-25T12:55:33;11.30;79.80
981;DHT22;479;53.514;9.994;2023-04-25T12:58:01;11.60;77.80
981;DHT22;479;53.514;9.994;2023-04-25T13:00:28;11.80;77.20
981;DHT22;479;53.514;9.994;2023-04-25T13:02:56;11.70;74.00
981;DHT22;479;53.514;9.994;2023-04-25T13:05:23;11.10;77.70
981;DHT22;479;53.514;9.994;2023-04-25T13:07:50;10.40;84.80
981;DHT22;479;53.514;9.994;2023-04-25T13:10:17;10.00;92.10
981;DHT22;479;53.514;9.994;2023-04-25T13:12:45;9.80;97.20
981;DHT22;479;53.514;9.994;2023-04-25T13:15:12;9.80;99.90
981;DHT22;479;53.514;9.994;2023-04-25T13:17:41;10.20;99.30
981;DHT22;479;53.514;9.994;2023-04-25T13:20:09;10.30;96.50
981;DHT22;479;53.514;9.994;2023-04-25T13:22:36;10.50;94.40
981;DHT22;479;53.514;9.994;2023-04-25T13:25:04;10.00;97.50
981;DHT22;479;53.514;9.994;2023-04-25T13:27:32;9.40;99.90
981;DHT22;479;53.514;9.994;2023-04-25T13:30:01;8.90;99.90
981;DHT22;479;53.514;9.994;2023-04-25T13:32:32;8.90;99.90
981;DHT22;479;53.514;9.994;2023-04-25T13:35:01;8.90;99.90
981;DHT22;479;53.514;9.994;2023-04-25T13:37:29;9.00;99.90
981;DHT22;479;53.514;9.994;2023-04-25T13:39:58;9.50;99.90
981;DHT22;479;53.514;9.994;2023-04-25T13:42:25;9.80;99.90
981;DHT22;479;53.514;9.994;2023-04-25T13:44:52;9.70;99.90
981;DHT22;479;53.514;9.994;2023-04-25T13:47:20;9.60;99.90
981;DHT22;479;53.514;9.994;2023-04-25T13:49:48;9.60;99.90
981;DHT22;479;53.514;9.994;2023-04-25T13:52:15;9.60;99.90
981;DHT22;479;53.514;9.994;2023-04-25T13:54:42;9.70;99.90
981;DHT22;479;53.514;9.994;2023-04-25T13:57:09;9.60;99.90
981;DHT22;479;53.514;9.994;2023-04-25T13:59:37;9.20;99.90
981;DHT22;479;53.514;9.994;2023-04-25T14:02:04;8.40;99.90
981;DHT22;479;53.514;9.994;2023-04-25T14:04:32;8.00;99.90
981;DHT22;479;53.514;9.994;2023-04-25T14:07:01;7.90;99.90
981;DHT22;479;53.514;9.994;2023-04-25T14:09:29;7.70;99.90
981;DHT22;479;53.514;9.994;2023-04-25T14:11:56;7.70;99.90
981;DHT22;479;53.514;9.994;2023-04-25T14:14:23;7.70;99.90
981;DHT22;479;53.514;9.994;2023-04-25T14:16:51;7.70;99.90
981;DHT22;479;53.514;9.994;2023-04-25T14:19:19;8.00;99.90
981;DHT22;479;53.514;9.994;2023-04-25T14:21:48;8.40;99.90
981;DHT22;479;53.514;9.994;2023-04-25T14:24:15;8.90;99.90
981;DHT22;479;53.514;9.994;2023-04-25T14:26:43;8.90;99.90
981;DHT22;479;53.514;9.994;2023-04-25T14:29:09;9.00;99.90
981;DHT22;479;53.514;9.994;2023-04-25T14:31:37;9.00;99.90
981;DHT22;479;53.514;9.994;2023-04-25T14:34:05;9.30;99.90
981;DHT22;479;53.514;9.994;2023-04-25T14:36:33;9.30;99.90
981;DHT22;479;53.514;9.994;2023-04-25T14:39:02;9.20;99.90
981;DHT22;479;53.514;9.994;2023-04-25T14:41:30;9.30;99.90
981;DHT22;479;53.514;9.994;2023-04-25T14:43:57;9.50;99.90
981;DHT22;479;53.514;9.994;2023-04-25T14:46:24;9.70;99.90
981;DHT22;479;53.514;9.994;2023-04-25T14:48:51;9.80;99.90
981;DHT22;479;53.514;9.994;2023-04-25T14:51:18;9.60;99.90
981;DHT22;479;53.514;9.994;2023-04-25T14:53:45;9.40;99.90
981;DHT22;479;53.514;9.994;2023-04-25T14:56:14;9.30;99.90
981;DHT22;479;53.514;9.994;2023-04-25T14:58:40;9.60;99.90
981;DHT22;479;53.514;9.994;2023-04-25T15:01:07;9.70;99.90
981;DHT22;479;53.514;9.994;2023-04-25T15:03:34;9.90;99.90
981;DHT22;479;53.514;9.994;2023-04-25T15:06:05;10.10;99.90
981;DHT22;479;53.514;9.994;2023-04-25T15:08:32;10.30;98.20
981;DHT22;479;53.514;9.994;2023-04-25T15:10:59;10.20;95.60
981;DHT22;479;53.514;9.994;2023-04-25T15:13:29;10.20;94.50
981;DHT22;479;53.514;9.994;2023-04-25T15:15:57;10.00;91.50
981;DHT22;479;53.514;9.994;2023-04-25T15:18:24;9.80;93.80
981;DHT22;479;53.514;9.994;2023-04-25T15:20:51;9.40;99.90
981;DHT22;479;53.514;9.994;2023-04-25T15:23:19;9.40;99.90
981;DHT22;479;53.514;9.994;2023-04-25T15:25:47;9.30;99.90
981;DHT22;479;53.514;9.994;2023-04-25T15:28:14;9.30;99.90
981;DHT22;479;53.514;9.994;2023-04-25T15:30:42;9.10;99.90
981;DHT22;479;53.514;9.994;2023-04-25T15:33:10;9.00;99.90
981;DHT22;479;53.514;9.994;2023-04-25T15:35:37;9.00;99.90
981;DHT22;479;53.514;9.994;2023-04-25T15:38:04;8.90;99.90
981;DHT22;479;53.514;9.994;2023-04-25T15:40:31;8.90;99.90
981;DHT22;479;53.514;9.994;2023-04-25T15:42:58;8.90;99.90
981;DHT22;479;53.514;9.994;2023-04-25T15:45:25;9.30;99.90
981;DHT22;479;53.514;9.994;2023-04-25T15:47:55;9.20;99.90
981;DHT22;479;53.514;9.994;2023-04-25T15:50:22;9.20;99.90
981;DHT22;479;53.514;9.994;2023-04-25T15:52:50;9.10;99.90
981;DHT22;479;53.514;9.994;2023-04-25T15:55:17;9.00;99.90
981;DHT22;479;53.514;9.994;2023-04-25T15:57:45;9.00;99.90
981;DHT22;479;53.514;9.994;2023-04-25T16:00:13;9.00;99.50
981;DHT22;479;53.514;9.994;2023-04-25T16:02:43;8.90;99.30
981;DHT22;479;53.514;9.994;2023-04-25T16:05:12;8.90;99.60
981;DHT22;479;53.514;9.994;2023-04-25T16:07:40;9.00;99.90
981;DHT22;479;53.514;9.994;2023-04-25T16:10:08;9.00;98.40
981;DHT22;479;53.514;9.994;2023-04-25T16:12:36;9.10;97.70
981;DHT22;479;53.514;9.994;2023-04-25T16:15:04;9.20;97.20
981;DHT22;479;53.514;9.994;2023-04-25T16:17:31;9.30;99.90
981;DHT22;479;53.514;9.994;2023-04-25T16:19:58;9.60;99.90
981;DHT22;479;53.514;9.994;2023-04-25T16:22:27;9.70;99.90
981;DHT22;479;53.514;9.994;2023-04-25T16:24:54;9.60;99.90
981;DHT22;479;53.514;9.994;2023-04-25T16:27:21;9.60;99.90
981;DHT22;479;53.514;9.994;2023-04-25T16:29:48;9.50;99.90
981;DHT22;479;53.514;9.994;2023-04-25T16:32:16;9.30;99.90
981;DHT22;479;53.514;9.994;2023-04-25T16:34:43;9.10;99.90
981;DHT22;479;53.514;9.994;2023-04-25T16:37:09;8.80;99.90
981;DHT22;479;53.514;9.994;2023-04-25T16:39:38;8.70;99.90
981;DHT22;479;53.514;9.994;2023-04-25T16:42:05;8.60;99.90
981;DHT22;479;53.514;9.994;2023-04-25T16:44:32;8.50;99.20
981;DHT22;479;53.514;9.994;2023-04-25T16:46:59;8.50;99.10
981;DHT22;479;53.514;9.994;2023-04-25T16:49:25;8.60;98.90
981;DHT22;479;53.514;9.994;2023-04-25T16:51:52;8.60;99.90
981;DHT22;479;53.514;9.994;2023-04-25T16:54:19;8.70;99.90
981;DHT22;479;53.514;9.994;2023-04-25T16:56:48;8.90;99.90
981;DHT22;479;53.514;9.994;2023-04-25T16:59:15;8.70;99.30
981;DHT22;479;53.514;9.994;2023-04-25T17:01:42;8.80;99.90
981;DHT22;479;53.514;9.994;2023-04-25T17:04:10;8.70;99.60
981;DHT22;479;53.514;9.994;2023-04-25T17:06:36;8.60;99.90
981;DHT22;479;53.514;9.994;2023-04-25T17:09:04;8.70;99.90